Airfield :
LOGIN :

Register | Disclaimer

   EN    FR    IT 

 










Legend :    VFR   Marginal VFR   IFR   Intensive IFR   Very Intensive IFR
Visi :
Ceiling :
>= 8 km
>= 3000ft
5 to 8 km
1000 to 3000 ft
1500m to 5 km
500 to 1000 ft
800 to 1500m
200 to 500 ft
< 800m
< 200 ft
Symbols :   Thunderstorms  Fog  Heavy snow  Heavy precipitations  Wind > 20 kt
SIGMETs :     Misc.  Thunderstorms  Icing  Turbulence  Mountain Waves  Volcanic Ashes






- Airport Elevation : 778 ft
- IATA code : BRQ


LKTB - Brno-Turany

CURRENT METAR :
  • 180900Z VRB01KT 9999 OVC017 07/02 Q1018 NOSIG

EXPIRED METARs :
  • 180843Z VRB02KT 9999 OVC018 07/02 Q1018 RMK REG QNH 1016
  • 180800Z 32005KT 290V350 9999 FEW018 OVC022 07/02 Q1018 NOSIG
  • 180730Z 32007KT 9999 SCT022 SCT041 06/02 Q1018 NOSIG
  • 180700Z 32006KT 9999 BKN020 BKN047 06/02 Q1018 NOSIG
  • 180630Z 31007KT 8000 BKN020 06/02 Q1018 NOSIG

TAF TAF LKTB
Valid from the 18 at 06:00 until the 19 at 12:00 UTC


180500Z 1806/1912 36006KT 9999 BKN025
TEMPO 1806/1912 4000 -RA BR BKN012



MET'MAP, your aeronautical weather chart ! - Copyright ORBIFLY December 2007 - Disclaimer

ORBIFLY MET'MAP TEAM :

Programming & Development : Alexandra Zaïnal
Concept & original design : Baudouin d'Aumeries
Assistance for programming : Marc-Olivier Méhu
Technical & hardware support : Manuel Goepfert

Contact : metmap@orbifly.com




SOURCES & CREDITS :

   NOAA